Time;durP1;ratioP1;P1;durP2;ratioP2;P2;SDS_P1;SDS_P2;PMS_P1;PMS_P2;Temp;Humidity;BMP_temperature;BMP_pressure;BME280_temperature;BME280_humidity;BME280_pressure;Samples;Min_cycle;Max_cycle;Signal;HPM_P1;HPM_P2
2023/01/19 00:01:59;;;;;;;1.42;1.20;;;2.50;99.90;;;;;;5094468;28;20079;-58
2023/01/19 00:04:24;;;;;;;1.50;1.15;;;2.50;99.90;;;;;;5091901;28;20086;-58
2023/01/19 00:06:50;;;;;;;2.22;1.60;;;2.40;99.90;;;;;;5098711;28;20031;-58
2023/01/19 00:09:15;;;;;;;1.92;0.90;;;2.40;99.90;;;;;;5092716;28;20032;-58
2023/01/19 00:11:41;;;;;;;2.80;1.42;;;2.30;99.90;;;;;;5099549;28;20041;-60
2023/01/19 00:14:06;;;;;;;0.88;0.82;;;2.20;99.90;;;;;;5090465;28;20193;-60
2023/01/19 00:16:32;;;;;;;2.35;1.15;;;2.10;99.90;;;;;;5096837;28;20039;-58
2023/01/19 00:18:57;;;;;;;1.45;1.35;;;2.10;99.90;;;;;;5088081;28;20025;-58
2023/01/19 00:21:23;;;;;;;1.88;1.17;;;2.10;99.90;;;;;;5096575;28;20044;-58
2023/01/19 00:23:51;;;;;;;2.03;1.48;;;2.10;99.90;;;;;;5093653;28;20039;-59
2023/01/19 00:26:20;;;;;;;2.28;1.13;;;2.00;99.90;;;;;;5090141;28;20044;-60
2023/01/19 00:28:48;;;;;;;1.70;0.90;;;1.90;99.90;;;;;;5087778;28;20107;-60
2023/01/19 00:31:15;;;;;;;2.00;1.00;;;2.00;99.90;;;;;;5091098;28;20036;-58
2023/01/19 00:33:41;;;;;;;1.42;1.30;;;2.00;99.90;;;;;;5090541;28;20456;-60
2023/01/19 00:36:07;;;;;;;2.88;1.20;;;1.90;99.90;;;;;;5095985;28;20043;-58
2023/01/19 00:38:32;;;;;;;2.50;1.77;;;1.90;99.90;;;;;;5094673;28;20051;-59
2023/01/19 00:41:01;;;;;;;1.90;1.67;;;2.00;99.90;;;;;;5100350;28;20544;-59
2023/01/19 00:43:27;;;;;;;1.98;1.23;;;2.10;99.90;;;;;;5085954;28;20082;-57
2023/01/19 00:45:54;;;;;;;2.70;1.92;;;2.00;99.90;;;;;;5098780;28;20717;-58
2023/01/19 00:48:19;;;;;;;2.70;1.65;;;2.10;99.90;;;;;;5097074;28;20069;-61
2023/01/19 00:50:47;;;;;;;2.63;2.40;;;2.00;99.90;;;;;;5093849;28;20035;-57
2023/01/19 00:53:13;;;;;;;3.65;2.42;;;2.10;99.90;;;;;;5095524;28;20036;-59
2023/01/19 00:55:39;;;;;;;2.70;1.70;;;2.10;99.90;;;;;;5097887;28;20508;-57
2023/01/19 00:58:06;;;;;;;3.97;2.95;;;1.90;99.90;;;;;;5091681;28;20040;-61
2023/01/19 01:00:31;;;;;;;4.18;3.20;;;1.90;99.90;;;;;;5098472;28;20039;-57
2023/01/19 01:02:57;;;;;;;3.15;2.45;;;2.00;99.90;;;;;;5100652;28;20060;-58
2023/01/19 01:05:24;;;;;;;3.67;2.58;;;2.10;99.90;;;;;;5098515;28;20562;-56
2023/01/19 01:07:50;;;;;;;4.38;3.85;;;1.90;99.90;;;;;;5086388;28;20351;-55
2023/01/19 01:10:19;;;;;;;4.05;3.08;;;2.00;99.90;;;;;;5094759;28;20514;-57
2023/01/19 01:12:45;;;;;;;5.22;4.32;;;1.90;99.90;;;;;;5089885;28;20077;-60
2023/01/19 01:15:12;;;;;;;4.93;2.85;;;2.10;99.90;;;;;;5087336;28;20376;-56
2023/01/19 01:17:45;;;;;;;5.70;4.57;;;2.10;99.90;;;;;;5095638;28;20068;-58
2023/01/19 01:20:18;;;;;;;6.65;5.30;;;2.00;99.90;;;;;;5089494;28;20444;-57
2023/01/19 01:22:47;;;;;;;5.60;3.45;;;2.20;99.90;;;;;;5077444;28;20050;-57
2023/01/19 01:25:14;;;;;;;9.27;4.00;;;2.20;99.90;;;;;;5089948;28;20040;-57
2023/01/19 01:27:40;;;;;;;7.85;6.15;;;2.10;99.90;;;;;;5088651;28;20445;-59
2023/01/19 01:30:06;;;;;;;8.05;4.55;;;2.20;99.90;;;;;;5092260;28;20382;-59
2023/01/19 01:32:32;;;;;;;10.40;7.25;;;2.20;99.90;;;;;;5090359;28;20044;-58
2023/01/19 01:34:57;;;;;;;10.07;4.88;;;2.20;99.90;;;;;;5090347;28;20344;-57
2023/01/19 01:37:23;;;;;;;8.95;4.97;;;2.20;99.90;;;;;;5095254;28;20052;-58
2023/01/19 01:39:56;;;;;;;8.32;7.07;;;2.10;99.90;;;;;;5098424;28;20097;-58
2023/01/19 01:42:27;;;;;;;7.55;5.15;;;2.20;99.90;;;;;;5090090;28;20126;-58
2023/01/19 01:45:01;;;;;;;9.23;7.47;;;2.30;99.90;;;;;;5096082;28;20520;-59
2023/01/19 01:47:41;;;;;;;8.13;5.43;;;2.30;99.90;;;;;;5089300;28;20032;-59
2023/01/19 01:50:20;;;;;;;9.48;8.50;;;2.20;99.90;;;;;;5088190;28;20033;-59
2023/01/19 01:52:50;;;;;;;8.90;7.90;;;2.20;99.90;;;;;;5086295;28;20381;-57
2023/01/19 01:55:18;;;;;;;9.02;5.07;;;2.30;99.90;;;;;;5096493;28;20041;-60
2023/01/19 01:57:48;;;;;;;11.25;7.15;;;2.30;99.90;;;;;;5094556;28;20100;-58
2023/01/19 02:00:15;;;;;;;6.82;4.40;;;2.20;99.90;;;;;;5088375;28;20043;-58
2023/01/19 02:02:50;;;;;;;9.75;6.22;;;2.20;99.90;;;;;;5092168;28;20558;-58
2023/01/19 02:05:33;;;;;;;10.13;5.03;;;2.50;99.90;;;;;;5088136;28;20036;-57
2023/01/19 02:13:52;;;;;;;10.32;6.55;;;2.50;99.90;;;;;;5083989;28;20032;-56
2023/01/19 02:16:18;;;;;;;7.38;5.55;;;2.40;99.90;;;;;;5086293;28;20028;-57
2023/01/19 02:18:45;;;;;;;6.80;3.40;;;2.40;99.90;;;;;;5093576;28;20090;-59
2023/01/19 02:21:30;;;;;;;5.90;3.40;;;2.50;99.90;;;;;;5091732;28;20051;-60
2023/01/19 02:24:03;;;;;;;5.65;3.38;;;2.50;99.90;;;;;;5087226;28;20036;-59
2023/01/19 02:26:41;;;;;;;5.43;2.90;;;2.40;99.90;;;;;;5086811;28;20028;-57
2023/01/19 02:29:13;;;;;;;7.35;4.80;;;2.40;99.90;;;;;;5084945;28;20052;-57
2023/01/19 02:31:39;;;;;;;6.13;3.80;;;2.50;99.90;;;;;;5093682;28;20043;-59
2023/01/19 02:34:07;;;;;;;6.47;5.18;;;2.40;99.90;;;;;;5082526;28;20035;-57
2023/01/19 02:36:50;;;;;;;6.07;3.45;;;2.50;99.90;;;;;;5099465;28;20043;-57
2023/01/19 02:39:20;;;;;;;4.35;2.63;;;2.60;99.90;;;;;;5087215;28;20042;-61
2023/01/19 02:41:51;;;;;;;6.10;4.63;;;2.50;99.90;;;;;;5063741;28;20059;-59
2023/01/19 02:44:25;;;;;;;4.28;2.78;;;2.50;99.90;;;;;;5064840;28;20036;-61
2023/01/19 02:46:53;;;;;;;4.72;2.90;;;2.50;99.90;;;;;;5064920;28;20033;-60
2023/01/19 02:49:18;;;;;;;6.35;4.85;;;2.40;99.90;;;;;;5065795;28;20040;-59
2023/01/19 02:51:44;;;;;;;6.22;3.00;;;2.50;99.90;;;;;;5060846;28;20044;-57
2023/01/19 02:54:19;;;;;;;5.55;4.35;;;2.30;99.90;;;;;;5066105;28;20037;-58
2023/01/19 02:57:04;;;;;;;4.75;4.25;;;2.40;99.90;;;;;;5065406;28;20123;-58
2023/01/19 02:59:52;;;;;;;4.18;2.78;;;2.20;99.90;;;;;;5063260;28;20421;-59
2023/01/19 03:02:41;;;;;;;4.78;3.95;;;2.20;99.90;;;;;;5065631;28;20037;-57
2023/01/19 03:05:48;;;;;;;4.00;3.00;;;2.20;99.90;;;;;;5063124;28;20403;-60
2023/01/19 03:08:36;;;;;;;4.20;2.30;;;2.00;99.90;;;;;;5050207;28;20049;-58
2023/01/19 03:11:11;;;;;;;5.65;3.95;;;2.00;99.90;;;;;;5061892;28;20434;-59
2023/01/19 03:13:45;;;;;;;3.58;2.42;;;2.00;99.90;;;;;;5065248;28;20036;-59
2023/01/19 03:16:19;;;;;;;4.10;3.70;;;1.90;99.90;;;;;;5061171;28;20068;-59
2023/01/19 03:18:52;;;;;;;3.80;2.30;;;2.00;99.90;;;;;;5064683;28;20036;-57
2023/01/19 03:21:21;;;;;;;3.17;1.65;;;1.90;99.90;;;;;;5066298;28;20032;-57
2023/01/19 03:23:49;;;;;;;3.45;3.03;;;1.90;99.90;;;;;;5064986;28;20498;-59
2023/01/19 03:26:19;;;;;;;4.68;2.03;;;2.00;99.90;;;;;;5070670;28;20040;-59
2023/01/19 03:28:47;;;;;;;3.78;2.90;;;2.00;99.90;;;;;;5065561;28;20040;-56
2023/01/19 03:31:21;;;;;;;2.80;1.60;;;2.00;99.90;;;;;;5067442;28;20044;-58
2023/01/19 03:33:52;;;;;;;3.63;2.27;;;2.10;99.90;;;;;;5068194;28;20056;-58
2023/01/19 03:36:34;;;;;;;1.92;1.58;;;2.10;99.90;;;;;;5068521;28;20763;-58
2023/01/19 03:39:03;;;;;;;2.47;1.50;;;2.30;99.90;;;;;;5068458;28;20059;-59
2023/01/19 03:41:33;;;;;;;4.47;1.75;;;2.30;99.90;;;;;;5089554;28;20173;-57
2023/01/19 03:44:00;;;;;;;5.03;2.90;;;2.30;99.90;;;;;;5089230;28;20058;-59
2023/01/19 03:46:27;;;;;;;2.90;2.08;;;2.30;99.90;;;;;;5092296;28;20067;-56
2023/01/19 03:48:53;;;;;;;4.70;2.72;;;2.40;99.90;;;;;;5090437;28;20052;-57
2023/01/19 03:51:20;;;;;;;5.60;3.00;;;2.40;99.90;;;;;;5095680;28;20047;-57
2023/01/19 03:53:46;;;;;;;3.13;1.70;;;2.50;99.90;;;;;;5090940;28;20028;-61
2023/01/19 03:56:20;;;;;;;2.90;1.75;;;2.50;99.90;;;;;;5095778;28;20104;-56
2023/01/19 03:58:46;;;;;;;6.75;3.10;;;2.50;99.90;;;;;;5090260;28;20112;-59
2023/01/19 04:01:12;;;;;;;12.80;4.25;;;2.70;99.90;;;;;;5093976;28;20036;-58
2023/01/19 04:03:38;;;;;;;11.77;2.53;;;2.70;99.90;;;;;;5089939;28;20048;-57
2023/01/19 04:06:04;;;;;;;18.88;4.20;;;2.80;99.90;;;;;;5094797;28;20361;-57
2023/01/19 04:08:31;;;;;;;17.13;3.50;;;3.00;99.90;;;;;;5089420;28;20033;-57
2023/01/19 04:10:57;;;;;;;19.40;3.88;;;2.90;99.90;;;;;;5092883;28;20086;-58
2023/01/19 04:13:22;;;;;;;35.85;12.35;;;3.10;99.90;;;;;;5094802;28;20076;-58
2023/01/19 04:15:48;;;;;;;24.42;4.72;;;3.20;99.90;;;;;;5091824;28;20039;-59
2023/01/19 04:18:13;;;;;;;23.20;5.90;;;3.30;99.90;;;;;;5089920;28;20044;-59
2023/01/19 04:20:39;;;;;;;12.25;2.65;;;3.30;99.90;;;;;;5099995;28;20061;-57
2023/01/19 04:23:05;;;;;;;11.32;1.65;;;3.60;99.90;;;;;;5092757;28;20036;-59
2023/01/19 04:25:30;;;;;;;14.35;2.40;;;3.70;99.90;;;;;;5092649;28;20046;-56
2023/01/19 04:27:58;;;;;;;5.82;1.33;;;3.80;99.90;;;;;;5093930;28;20316;-58
2023/01/19 04:30:26;;;;;;;9.85;2.42;;;3.80;99.90;;;;;;5096375;28;20602;-56
2023/01/19 04:32:52;;;;;;;10.02;1.83;;;3.80;99.90;;;;;;5097121;28;20111;-56
2023/01/19 04:35:18;;;;;;;12.77;1.67;;;3.80;99.90;;;;;;5091710;28;20351;-57
2023/01/19 04:37:43;;;;;;;12.93;2.80;;;4.00;99.90;;;;;;5090196;28;20046;-58
2023/01/19 04:40:10;;;;;;;18.00;2.20;;;4.00;99.90;;;;;;5092725;28;20048;-57
2023/01/19 04:42:44;;;;;;;22.40;2.15;;;4.00;99.90;;;;;;5093482;28;20059;-56
2023/01/19 04:45:10;;;;;;;16.47;4.10;;;4.00;99.90;;;;;;5092062;28;20031;-57
2023/01/19 04:47:36;;;;;;;14.23;3.53;;;4.20;99.90;;;;;;5096776;28;20277;-57
2023/01/19 04:50:01;;;;;;;18.30;2.35;;;4.30;99.90;;;;;;5092297;28;20039;-58
2023/01/19 04:52:34;;;;;;;21.25;2.92;;;4.40;99.90;;;;;;5090150;28;20040;-57
2023/01/19 04:55:04;;;;;;;19.25;3.80;;;4.50;99.90;;;;;;5092652;28;20057;-57
2023/01/19 04:57:30;;;;;;;20.20;2.33;;;4.50;99.90;;;;;;5088142;28;20499;-59
2023/01/19 04:59:57;;;;;;;18.60;3.63;;;4.60;99.90;;;;;;5097330;28;20028;-57
2023/01/19 05:02:23;;;;;;;17.00;3.45;;;4.60;99.90;;;;;;5097595;28;20086;-57
2023/01/19 05:04:49;;;;;;;12.30;2.20;;;4.50;99.90;;;;;;5091781;28;20044;-57
2023/01/19 05:07:14;;;;;;;13.15;3.00;;;4.50;99.90;;;;;;5102835;28;20032;-57
2023/01/19 05:09:40;;;;;;;16.92;3.05;;;4.40;99.90;;;;;;5092023;28;20074;-56
2023/01/19 05:12:06;;;;;;;9.88;1.63;;;4.40;99.90;;;;;;5093501;28;20431;-56
2023/01/19 05:14:31;;;;;;;14.57;2.42;;;4.40;99.90;;;;;;5095018;28;20047;-56
2023/01/19 05:16:57;;;;;;;10.00;1.80;;;4.30;99.90;;;;;;5096970;28;20036;-58
2023/01/19 05:19:23;;;;;;;15.40;2.83;;;4.30;99.90;;;;;;5095020;28;20176;-58
2023/01/19 05:21:48;;;;;;;8.38;2.20;;;4.30;99.90;;;;;;5087012;28;20036;-57
2023/01/19 05:24:14;;;;;;;13.07;2.55;;;4.20;99.90;;;;;;5091530;28;20036;-56
2023/01/19 05:26:40;;;;;;;8.52;1.38;;;4.20;99.90;;;;;;5098703;28;20753;-60
2023/01/19 05:29:05;;;;;;;7.25;1.55;;;4.20;99.90;;;;;;5086064;28;20455;-59
2023/01/19 05:31:31;;;;;;;10.75;2.35;;;4.20;99.90;;;;;;5092863;28;20047;-56
2023/01/19 05:33:56;;;;;;;7.45;1.48;;;4.20;99.90;;;;;;5094861;28;20063;-59
2023/01/19 05:36:22;;;;;;;11.30;1.95;;;4.30;99.90;;;;;;5086738;28;20032;-57
2023/01/19 05:38:48;;;;;;;12.13;2.45;;;4.20;99.90;;;;;;5091473;28;20063;-56
2023/01/19 05:41:17;;;;;;;10.80;1.50;;;4.30;99.90;;;;;;5091302;28;20059;-57
2023/01/19 05:43:43;;;;;;;14.65;2.88;;;4.20;99.90;;;;;;5091705;28;20441;-56
2023/01/19 05:46:08;;;;;;;10.30;1.73;;;4.20;99.90;;;;;;5097242;28;20115;-57
2023/01/19 05:48:34;;;;;;;13.57;3.00;;;4.20;99.90;;;;;;5090818;28;20469;-58
2023/01/19 05:51:00;;;;;;;13.75;2.75;;;4.10;99.90;;;;;;5087268;28;20350;-56
2023/01/19 05:53:26;;;;;;;20.08;3.58;;;4.10;99.90;;;;;;5088264;28;20356;-58
2023/01/19 05:55:52;;;;;;;10.07;1.65;;;4.00;99.90;;;;;;5073059;28;20028;-56
2023/01/19 05:58:18;;;;;;;14.68;2.60;;;3.90;99.90;;;;;;5091437;28;20086;-57
2023/01/19 06:00:43;;;;;;;15.73;3.22;;;3.90;99.90;;;;;;5090367;28;20046;-56
2023/01/19 06:03:09;;;;;;;20.42;3.65;;;3.90;99.90;;;;;;5090527;28;20040;-56
2023/01/19 06:05:37;;;;;;;12.50;2.42;;;3.90;99.90;;;;;;5094902;28;20043;-58
2023/01/19 06:08:02;;;;;;;18.33;3.72;;;3.90;99.90;;;;;;5085279;28;20096;-59
2023/01/19 06:10:28;;;;;;;14.70;3.30;;;3.90;99.90;;;;;;5096058;28;20114;-59
2023/01/19 06:12:53;;;;;;;8.85;1.55;;;3.90;99.90;;;;;;5089239;28;20765;-57
2023/01/19 06:15:19;;;;;;;10.75;2.50;;;4.00;99.90;;;;;;5091156;28;20047;-57
2023/01/19 06:17:45;;;;;;;7.82;1.40;;;4.00;99.90;;;;;;5094568;28;20081;-57
2023/01/19 06:20:12;;;;;;;15.13;4.22;;;3.90;99.90;;;;;;5097242;28;20039;-58
2023/01/19 06:22:38;;;;;;;11.90;3.25;;;3.90;99.90;;;;;;5090255;28;20044;-57
2023/01/19 06:25:04;;;;;;;16.48;3.63;;;4.00;99.90;;;;;;5091064;28;20040;-57
2023/01/19 06:27:29;;;;;;;16.98;6.90;;;4.10;99.90;;;;;;5089244;28;20320;-56
2023/01/19 06:29:55;;;;;;;11.57;3.50;;;4.10;99.90;;;;;;5091085;28;20424;-59
2023/01/19 06:32:20;;;;;;;12.77;4.00;;;4.10;99.90;;;;;;5087564;28;20432;-56
2023/01/19 06:34:46;;;;;;;12.35;2.63;;;4.10;99.90;;;;;;5093835;28;20028;-59
2023/01/19 06:37:12;;;;;;;13.35;4.53;;;4.00;99.90;;;;;;5089131;28;20025;-56
2023/01/19 06:39:42;;;;;;;13.32;3.50;;;4.00;99.90;;;;;;5094111;28;20182;-56
2023/01/19 06:42:08;;;;;;;12.32;3.40;;;4.00;99.90;;;;;;5064726;28;20079;-56
2023/01/19 06:44:36;;;;;;;9.43;2.38;;;4.00;99.90;;;;;;5068661;28;20453;-60
2023/01/19 06:47:02;;;;;;;10.45;2.33;;;4.00;99.90;;;;;;5064263;28;20342;-56
2023/01/19 06:49:27;;;;;;;6.07;1.45;;;4.00;99.90;;;;;;5071008;28;20052;-55
2023/01/19 06:51:53;;;;;;;8.02;2.17;;;4.10;99.90;;;;;;5063599;28;20044;-58
2023/01/19 06:54:19;;;;;;;7.72;1.30;;;4.00;99.90;;;;;;5060558;28;20025;-58
2023/01/19 06:56:44;;;;;;;12.00;2.35;;;3.90;99.90;;;;;;5049265;28;20051;-57
2023/01/19 06:59:10;;;;;;;12.45;2.20;;;3.90;99.90;;;;;;5070754;28;20052;-58
2023/01/19 07:01:35;;;;;;;12.60;1.92;;;4.10;99.90;;;;;;5067475;28;20425;-56
2023/01/19 07:04:01;;;;;;;12.00;2.50;;;4.00;99.90;;;;;;5067263;28;20487;-55
2023/01/19 07:06:27;;;;;;;10.38;2.25;;;4.10;99.90;;;;;;5068190;28;20041;-59
2023/01/19 07:08:53;;;;;;;7.50;1.10;;;4.00;99.90;;;;;;5073254;28;20371;-57
2023/01/19 07:11:19;;;;;;;11.45;2.55;;;4.10;99.90;;;;;;5071233;28;20037;-58
2023/01/19 07:13:50;;;;;;;14.35;1.60;;;4.00;99.90;;;;;;5066816;28;20037;-58
2023/01/19 07:16:16;;;;;;;13.48;3.22;;;4.00;99.90;;;;;;5069792;28;20083;-60
2023/01/19 07:18:42;;;;;;;14.93;3.55;;;3.90;99.90;;;;;;5073688;28;20036;-57
2023/01/19 07:21:08;;;;;;;9.82;1.88;;;3.90;99.90;;;;;;5069400;28;20043;-53
2023/01/19 07:23:33;;;;;;;17.75;3.78;;;3.90;99.90;;;;;;5065845;28;20041;-59
2023/01/19 07:26:00;;;;;;;13.05;2.00;;;3.80;99.90;;;;;;5070642;28;20033;-56
2023/01/19 07:28:26;;;;;;;14.75;3.05;;;3.80;99.90;;;;;;5064544;28;20111;-56
2023/01/19 07:30:53;;;;;;;21.40;4.15;;;3.90;99.90;;;;;;5066421;28;20060;-54
2023/01/19 07:33:21;;;;;;;15.77;2.42;;;3.90;99.90;;;;;;5070506;28;20082;-57
2023/01/19 07:35:52;;;;;;;14.23;3.28;;;4.00;99.90;;;;;;5069863;28;20403;-59
2023/01/19 07:38:18;;;;;;;10.48;2.03;;;3.90;99.90;;;;;;5072824;28;20404;-56
2023/01/19 07:40:50;;;;;;;7.50;1.48;;;3.90;99.90;;;;;;5081079;28;20048;-56
2023/01/19 07:43:20;;;;;;;11.20;2.15;;;3.80;99.90;;;;;;5092815;28;20051;-60
2023/01/19 07:45:55;;;;;;;14.30;3.22;;;3.80;99.90;;;;;;5089782;28;20058;-56
2023/01/19 07:48:21;;;;;;;17.25;3.40;;;3.90;99.90;;;;;;5090774;28;20065;-59
2023/01/19 07:51:00;;;;;;;8.43;1.70;;;4.00;99.90;;;;;;5090533;28;20451;-56
2023/01/19 07:53:26;;;;;;;14.63;3.72;;;3.90;99.90;;;;;;5069744;28;20115;-56
2023/01/19 07:55:55;;;;;;;16.60;3.60;;;3.90;99.90;;;;;;5100753;28;20134;-53
2023/01/19 07:58:22;;;;;;;13.43;2.67;;;3.90;99.90;;;;;;5090361;28;20102;-59
2023/01/19 08:00:49;;;;;;;17.50;3.95;;;4.00;99.90;;;;;;5094956;28;20230;-58
2023/01/19 08:03:15;;;;;;;18.33;2.67;;;3.90;99.90;;;;;;5071756;28;20051;-57
2023/01/19 08:05:41;;;;;;;17.23;3.85;;;4.00;99.90;;;;;;5090410;28;20118;-55
2023/01/19 08:08:06;;;;;;;17.73;3.50;;;4.00;99.90;;;;;;5090733;28;20136;-57
2023/01/19 08:10:33;;;;;;;16.45;4.43;;;3.90;99.90;;;;;;5094585;28;20349;-57
2023/01/19 08:12:59;;;;;;;21.10;4.97;;;3.90;99.90;;;;;;5093276;28;20391;-59
2023/01/19 08:15:24;;;;;;;13.00;2.67;;;3.90;99.90;;;;;;5092308;28;20136;-57
2023/01/19 08:18:08;;;;;;;16.13;3.72;;;3.90;99.90;;;;;;5096261;28;20111;-57
2023/01/19 08:20:34;;;;;;;13.23;2.13;;;3.90;99.90;;;;;;5094015;28;20038;-57
2023/01/19 08:23:01;;;;;;;19.63;3.58;;;3.80;99.90;;;;;;5097426;28;20380;-57
2023/01/19 08:25:47;;;;;;;10.30;3.15;;;3.70;99.90;;;;;;5095593;28;20091;-59
2023/01/19 08:28:15;;;;;;;8.65;1.90;;;3.80;99.90;;;;;;5103837;28;20302;-57
2023/01/19 08:30:43;;;;;;;13.05;3.78;;;3.70;99.90;;;;;;5091305;28;20445;-59
2023/01/19 08:33:10;;;;;;;16.95;4.05;;;3.70;99.90;;;;;;5092477;28;20048;-59
2023/01/19 08:35:38;;;;;;;12.00;2.00;;;3.80;99.90;;;;;;5102267;28;20143;-56
2023/01/19 08:38:04;;;;;;;15.07;3.50;;;3.70;99.90;;;;;;5088590;28;20033;-57
2023/01/19 08:40:33;;;;;;;10.48;1.70;;;3.70;99.90;;;;;;5091666;28;20123;-57
2023/01/19 08:43:06;;;;;;;17.00;3.70;;;3.70;99.90;;;;;;5096073;28;20040;-58
2023/01/19 08:45:35;;;;;;;12.90;1.90;;;3.70;99.90;;;;;;5094353;28;20042;-57
2023/01/19 08:48:00;;;;;;;15.20;3.65;;;3.80;99.90;;;;;;5097313;28;20145;-56
2023/01/19 08:50:28;;;;;;;14.60;2.22;;;3.80;99.90;;;;;;5100461;28;20036;-56
2023/01/19 08:52:58;;;;;;;13.98;2.95;;;3.80;99.90;;;;;;5073207;28;20040;-57
2023/01/19 08:55:24;;;;;;;14.15;2.67;;;3.80;99.90;;;;;;5090290;28;20041;-55
2023/01/19 08:57:55;;;;;;;17.67;3.50;;;3.90;99.90;;;;;;5094035;28;20028;-57
2023/01/19 09:00:21;;;;;;;13.20;2.00;;;3.90;99.90;;;;;;5094160;28;20054;-56
2023/01/19 09:02:47;;;;;;;13.98;3.20;;;4.00;99.90;;;;;;5097685;28;20036;-57
2023/01/19 09:05:13;;;;;;;12.30;2.65;;;4.00;99.90;;;;;;5088099;28;20067;-58
2023/01/19 09:07:38;;;;;;;8.52;1.83;;;4.00;99.90;;;;;;5095356;28;20037;-57
2023/01/19 09:10:05;;;;;;;13.63;3.33;;;4.00;99.90;;;;;;5090644;28;20123;-58
2023/01/19 09:12:31;;;;;;;13.07;2.10;;;4.10;99.90;;;;;;5093671;28;20036;-58
2023/01/19 09:15:05;;;;;;;17.67;4.60;;;4.10;99.90;;;;;;5088135;28;20038;-57
2023/01/19 09:17:31;;;;;;;14.20;3.25;;;4.20;99.90;;;;;;5079782;28;20031;-59
2023/01/19 09:19:57;;;;;;;10.07;2.20;;;4.30;99.90;;;;;;5097414;28;20105;-56
2023/01/19 09:22:23;;;;;;;11.88;3.28;;;4.30;99.90;;;;;;5096088;28;20055;-57
2023/01/19 09:24:48;;;;;;;9.95;1.98;;;4.30;99.90;;;;;;5084659;28;20036;-53
2023/01/19 09:27:14;;;;;;;15.10;3.22;;;4.40;99.90;;;;;;5094871;28;20373;-56
2023/01/19 09:29:41;;;;;;;11.68;1.80;;;4.40;99.90;;;;;;5089508;28;20047;-56
2023/01/19 09:32:07;;;;;;;15.27;3.50;;;4.40;99.90;;;;;;5092649;28;20344;-56
2023/01/19 09:34:33;;;;;;;12.35;3.25;;;4.40;99.90;;;;;;5090924;28;20111;-58
2023/01/19 09:36:59;;;;;;;19.20;3.08;;;4.50;99.90;;;;;;5100108;28;20181;-57
2023/01/19 09:39:27;;;;;;;16.25;3.78;;;4.50;99.90;;;;;;5094361;28;20452;-60
2023/01/19 09:42:03;;;;;;;17.77;4.25;;;4.60;99.90;;;;;;5083403;28;20510;-56
2023/01/19 09:44:35;;;;;;;15.63;4.15;;;4.60;99.90;;;;;;5077324;28;20067;-57
2023/01/19 09:47:03;;;;;;;10.77;2.22;;;4.70;99.90;;;;;;5082527;28;20035;-59
2023/01/19 09:49:35;;;;;;;18.92;4.00;;;4.70;99.90;;;;;;5080997;28;20047;-54
2023/01/19 09:52:01;;;;;;;19.30;3.92;;;4.80;99.90;;;;;;5078120;28;20062;-57
2023/01/19 09:54:34;;;;;;;9.15;1.70;;;4.80;99.90;;;;;;5078649;28;20035;-57
2023/01/19 09:57:01;;;;;;;15.77;3.65;;;4.80;99.90;;;;;;5078981;28;20044;-57
2023/01/19 09:59:31;;;;;;;12.23;2.83;;;4.80;99.90;;;;;;5078712;28;20032;-57
2023/01/19 10:02:16;;;;;;;12.23;2.00;;;4.90;99.90;;;;;;5079430;28;20036;-56
2023/01/19 10:05:19;;;;;;;12.65;3.28;;;5.00;99.90;;;;;;5075158;28;20047;-57
2023/01/19 10:07:53;;;;;;;8.63;1.63;;;5.00;99.90;;;;;;5075503;28;20465;-57
2023/01/19 10:10:41;;;;;;;11.15;2.70;;;5.00;99.90;;;;;;5062869;28;20059;-56
2023/01/19 10:13:19;;;;;;;12.80;2.78;;;5.10;99.90;;;;;;5077695;28;20466;-57
2023/01/19 10:16:06;;;;;;;8.85;2.10;;;5.20;99.90;;;;;;5078263;28;20059;-59
2023/01/19 10:18:50;;;;;;;12.98;3.60;;;5.20;99.90;;;;;;5081206;28;20032;-58
2023/01/19 10:21:40;;;;;;;15.88;5.32;;;5.20;99.90;;;;;;5081143;28;20512;-60
2023/01/19 10:24:19;;;;;;;15.07;3.42;;;5.20;99.90;;;;;;5072865;28;20051;-57
2023/01/19 10:26:51;;;;;;;16.65;4.72;;;5.30;99.90;;;;;;5078115;28;20428;-57
2023/01/19 10:29:35;;;;;;;17.77;5.47;;;5.40;99.90;;;;;;5080329;28;20342;-58
2023/01/19 10:32:20;;;;;;;14.50;4.40;;;5.40;99.90;;;;;;5080695;28;20040;-59
2023/01/19 10:34:45;;;;;;;;;;;5.40;99.90;;;;;;5076326;28;20035;-58
2023/01/19 10:37:40;;;;;;;19.70;6.43;;;5.50;99.90;;;;;;5078801;28;20242;-57
2023/01/19 10:40:09;;;;;;;19.23;5.10;;;5.50;99.90;;;;;;5081627;28;20041;-58
2023/01/19 10:42:43;;;;;;;15.93;4.32;;;5.60;99.90;;;;;;5091783;28;20193;-58
2023/01/19 10:45:17;;;;;;;11.35;2.00;;;5.60;99.90;;;;;;5089617;28;20055;-57
2023/01/19 10:47:48;;;;;;;10.63;2.92;;;5.70;99.90;;;;;;5098013;28;20036;-57
2023/01/19 10:50:27;;;;;;;10.45;2.33;;;5.60;99.90;;;;;;5083367;28;20067;-56
2023/01/19 10:52:55;;;;;;;13.07;3.00;;;5.70;99.90;;;;;;5089799;28;20053;-53
2023/01/19 10:55:30;;;;;;;15.20;3.08;;;5.70;99.90;;;;;;5095509;28;20121;-55
2023/01/19 10:57:58;;;;;;;9.95;2.47;;;5.80;99.90;;;;;;5092801;28;20115;-57
2023/01/19 11:00:37;;;;;;;11.32;2.78;;;5.70;99.90;;;;;;5093930;28;20097;-57
2023/01/19 11:03:29;;;;;;;11.02;3.22;;;5.80;99.90;;;;;;5092139;28;20056;-54
2023/01/19 11:06:19;;;;;;;12.60;2.38;;;5.80;99.90;;;;;;5090505;28;20464;-56
2023/01/19 11:08:46;;;;;;;8.02;2.30;;;5.80;99.90;;;;;;5086486;28;20079;-57
2023/01/19 11:11:13;;;;;;;10.73;2.72;;;5.80;99.90;;;;;;5093138;28;20445;-57
2023/01/19 11:13:40;;;;;;;6.97;1.50;;;5.80;99.90;;;;;;5089833;28;20042;-59
2023/01/19 11:16:17;;;;;;;9.52;2.50;;;5.80;99.90;;;;;;5068443;28;20044;-56
2023/01/19 11:18:45;;;;;;;8.55;2.38;;;5.80;99.90;;;;;;5090111;28;20036;-58
2023/01/19 11:21:14;;;;;;;12.18;3.00;;;5.90;99.90;;;;;;5085390;28;20444;-57
2023/01/19 11:23:50;;;;;;;10.07;2.17;;;5.90;99.90;;;;;;5085649;28;20043;-59
2023/01/19 11:26:27;;;;;;;10.55;2.00;;;5.90;99.90;;;;;;5087645;28;20059;-58
2023/01/19 11:28:55;;;;;;;12.75;2.10;;;5.90;99.90;;;;;;5086438;28;20044;-57
2023/01/19 11:31:33;;;;;;;10.68;1.98;;;5.90;99.90;;;;;;5072759;28;20357;-60
2023/01/19 11:34:24;;;;;;;8.52;1.80;;;6.00;99.90;;;;;;5088200;28;20417;-60
2023/01/19 11:37:18;;;;;;;7.82;2.13;;;6.00;99.90;;;;;;5088891;28;20447;-60
2023/01/19 11:39:49;;;;;;;10.45;2.13;;;6.00;99.90;;;;;;5086633;28;20063;-60
2023/01/19 11:42:24;;;;;;;10.57;2.20;;;5.90;99.90;;;;;;5090037;28;20114;-59
2023/01/19 11:45:14;;;;;;;6.90;1.73;;;5.90;99.90;;;;;;5089957;28;20130;-60
2023/01/19 11:47:48;;;;;;;8.48;3.10;;;5.90;99.90;;;;;;5093908;28;20131;-60
2023/01/19 11:50:22;;;;;;;11.30;3.90;;;5.90;99.90;;;;;;5092747;28;20111;-60
2023/01/19 11:53:04;;;;;;;13.65;4.20;;;5.90;99.90;;;;;;5094590;28;20357;-59
2023/01/19 11:55:57;;;;;;;15.07;4.68;;;6.00;99.90;;;;;;5086397;28;20032;-60
2023/01/19 11:58:24;;;;;;;15.63;4.47;;;6.00;99.90;;;;;;5090779;28;20459;-61
2023/01/19 12:01:23;;;;;;;10.93;3.25;;;6.00;99.90;;;;;;5082145;28;20044;-60
2023/01/19 12:04:10;;;;;;;15.88;4.13;;;6.00;99.90;;;;;;5069546;28;20470;-60
2023/01/19 12:06:43;;;;;;;10.27;2.65;;;6.00;99.90;;;;;;5085354;28;20141;-61
2023/01/19 12:09:09;;;;;;;17.23;3.55;;;6.00;99.90;;;;;;5066693;28;20055;-60
2023/01/19 12:11:41;;;;;;;12.70;3.22;;;6.00;99.90;;;;;;5092093;28;20445;-60
2023/01/19 12:14:21;;;;;;;11.57;2.50;;;6.00;99.90;;;;;;5064753;28;20036;-58
2023/01/19 12:16:52;;;;;;;6.88;2.20;;;6.00;99.90;;;;;;5084905;28;20028;-58
2023/01/19 12:19:22;;;;;;;7.65;1.50;;;5.90;99.90;;;;;;5088101;28;20035;-58
2023/01/19 12:21:48;;;;;;;8.35;2.00;;;5.90;99.90;;;;;;5085767;28;20036;-56
2023/01/19 12:24:25;;;;;;;7.88;1.80;;;5.80;99.90;;;;;;5089135;28;20043;-57
2023/01/19 12:26:56;;;;;;;9.73;2.42;;;5.80;99.90;;;;;;5091912;28;20129;-58
2023/01/19 12:29:26;;;;;;;8.63;1.67;;;5.80;99.90;;;;;;5087855;28;20617;-57
2023/01/19 12:32:30;;;;;;;9.73;2.38;;;5.70;99.90;;;;;;5084803;28;20040;-60
2023/01/19 12:35:25;;;;;;;8.00;1.95;;;5.70;99.90;;;;;;5085524;28;20075;-60
2023/01/19 12:37:51;;;;;;;6.20;1.20;;;5.70;99.90;;;;;;5085216;28;20035;-60
2023/01/19 12:40:34;;;;;;;8.85;2.75;;;5.70;99.90;;;;;;5088974;28;20066;-60
2023/01/19 12:43:03;;;;;;;8.85;2.30;;;5.70;99.90;;;;;;5067564;28;20050;-60
2023/01/19 12:45:35;;;;;;;7.00;2.13;;;5.80;99.90;;;;;;5075932;28;20036;-60
2023/01/19 12:48:02;;;;;;;9.90;1.73;;;5.80;99.90;;;;;;5076851;28;20058;-61
2023/01/19 12:50:34;;;;;;;10.75;2.42;;;5.90;99.90;;;;;;5073839;28;20086;-59
2023/01/19 12:53:02;;;;;;;7.30;1.98;;;5.90;99.90;;;;;;5070933;28;20044;-59
2023/01/19 12:55:32;;;;;;;9.27;2.35;;;5.90;99.90;;;;;;5032140;28;20119;-59
2023/01/19 12:57:59;;;;;;;10.05;2.20;;;5.90;99.90;;;;;;5081553;28;20043;-60
2023/01/19 13:00:28;;;;;;;13.27;2.38;;;5.90;99.90;;;;;;5077415;28;20463;-60
2023/01/19 13:02:54;;;;;;;8.50;1.50;;;6.00;99.90;;;;;;5079895;28;20104;-60
2023/01/19 13:05:31;;;;;;;9.65;2.33;;;6.10;99.90;;;;;;5071246;28;20123;-60
2023/01/19 13:08:09;;;;;;;7.32;2.20;;;6.10;99.90;;;;;;5075428;28;20036;-60
2023/01/19 13:11:13;;;;;;;3.05;0.80;;;6.10;99.90;;;;;;5071747;28;20078;-61
2023/01/19 13:13:55;;;;;;;9.30;1.70;;;6.10;99.90;;;;;;5018009;28;20050;-58